USA763 UZTT-UZSR
Flight info
| Callsign | USA763 |
|---|---|
| Flight time | N/A |
| Altitude | 20000 |
| Route | KUFIM2A KUFIM DCT NETAT DCT TITAR DCT RONVU/K0498F190 DCT USETU DCT ARPIZ DCT LAVMI DCT FIZLE FIZLE2Y |
| Aircraft | AT76/M-SDFGIRY/S |
Departure
| Time | 2026-04-23 15:13 |
|---|---|
| Airport | Tashkent International Airport (UZTT) |
Arrival
| Time | N/A |
|---|---|
| Airport | UZSR |
| Time | Latitude | Longitude | Altitude | Speed | Heading |
|---|---|---|---|---|---|
| 2026-04-23 14:53 | 41.25228 | 69.26603 | 1422 ft | 0 kts | 180° |
| 2026-04-23 15:08 | 41.25217 | 69.26603 | 1422 ft | 3 kts | 179° |
| 2026-04-23 15:08 | 41.25191 | 69.26575 | 1422 ft | 7 kts | 261° |
| 2026-04-23 15:09 | 41.25200 | 69.26411 | 1422 ft | 10 kts | 269° |
| 2026-04-23 15:09 | 41.25200 | 69.26341 | 1422 ft | 7 kts | 271° |
| 2026-04-23 15:09 | 41.25201 | 69.26274 | 1422 ft | 7 kts | 271° |
| 2026-04-23 15:09 | 41.25236 | 69.26243 | 1422 ft | 3 kts | 355° |
| 2026-04-23 15:10 | 41.25258 | 69.26228 | 1422 ft | 3 kts | 311° |
| 2026-04-23 15:10 | 41.25270 | 69.26195 | 1422 ft | 4 kts | 291° |
| 2026-04-23 15:10 | 41.25284 | 69.26153 | 1422 ft | 5 kts | 293° |
| 2026-04-23 15:10 | 41.25291 | 69.26128 | 1422 ft | 0 kts | 290° |
| 2026-04-23 15:11 | 41.25292 | 69.26126 | 1422 ft | 0 kts | 290° |
| 2026-04-23 15:11 | 41.25298 | 69.26104 | 1422 ft | 4 kts | 291° |
| 2026-04-23 15:12 | 41.25326 | 69.26058 | 1422 ft | 6 kts | 327° |
| 2026-04-23 15:12 | 41.25375 | 69.26044 | 1422 ft | 7 kts | 11° |
| 2026-04-23 15:12 | 41.25421 | 69.26090 | 1422 ft | 8 kts | 47° |
| 2026-04-23 15:12 | 41.25441 | 69.26175 | 1422 ft | 18 kts | 77° |
| 2026-04-23 15:13 | 41.25521 | 69.26758 | 1423 ft | 102 kts | 80° |
| 2026-04-23 15:13 | 41.25619 | 69.27854 | 1718 ft | 128 kts | 81° |
| 2026-04-23 15:13 | 41.25711 | 69.29028 | 2184 ft | 134 kts | 82° |
| 2026-04-23 15:13 | 41.25816 | 69.30389 | 2379 ft | 159 kts | 82° |
| 2026-04-23 15:14 | 41.25932 | 69.31878 | 2799 ft | 164 kts | 82° |
| 2026-04-23 15:14 | 41.26049 | 69.33398 | 3274 ft | 165 kts | 82° |
| 2026-04-23 15:14 | 41.26165 | 69.34910 | 3721 ft | 168 kts | 83° |
| 2026-04-23 15:14 | 41.26281 | 69.36459 | 4205 ft | 168 kts | 83° |
| 2026-04-23 15:15 | 41.26397 | 69.38015 | 4656 ft | 170 kts | 82° |
| 2026-04-23 15:15 | 41.26510 | 69.39565 | 5137 ft | 171 kts | 83° |
| 2026-04-23 15:15 | 41.26627 | 69.41180 | 5564 ft | 175 kts | 84° |
| 2026-04-23 15:15 | 41.26741 | 69.42789 | 6031 ft | 175 kts | 83° |
| 2026-04-23 15:16 | 41.26857 | 69.44425 | 6478 ft | 177 kts | 84° |
| 2026-04-23 15:16 | 41.26971 | 69.46068 | 6931 ft | 178 kts | 85° |
| 2026-04-23 15:16 | 41.27085 | 69.47715 | 7377 ft | 180 kts | 84° |
| 2026-04-23 15:16 | 41.27198 | 69.49384 | 7827 ft | 181 kts | 86° |
| 2026-04-23 15:17 | 41.26944 | 69.51008 | 8120 ft | 185 kts | 124° |
| 2026-04-23 15:17 | 41.25903 | 69.51939 | 8474 ft | 179 kts | 169° |
| 2026-04-23 15:17 | 41.24740 | 69.51617 | 8877 ft | 173 kts | 213° |
| 2026-04-23 15:17 | 41.24116 | 69.50263 | 9265 ft | 175 kts | 257° |
| 2026-04-23 15:18 | 41.23953 | 69.48726 | 9810 ft | 167 kts | 260° |
| 2026-04-23 15:18 | 41.23804 | 69.47190 | 10246 ft | 168 kts | 259° |
| 2026-04-23 15:18 | 41.23381 | 69.45750 | 10520 ft | 174 kts | 227° |
| 2026-04-23 15:18 | 41.22437 | 69.44727 | 10996 ft | 170 kts | 217° |
| 2026-04-23 15:19 | 41.21522 | 69.43773 | 11474 ft | 167 kts | 217° |
| 2026-04-23 15:19 | 41.20607 | 69.42808 | 11878 ft | 169 kts | 217° |
| 2026-04-23 15:19 | 41.19653 | 69.41800 | 12036 ft | 191 kts | 217° |
| 2026-04-23 15:19 | 41.18509 | 69.40587 | 11978 ft | 222 kts | 217° |
| 2026-04-23 15:20 | 41.17318 | 69.39323 | 12022 ft | 239 kts | 217° |
| 2026-04-23 15:20 | 41.16011 | 69.37936 | 12320 ft | 242 kts | 218° |
| 2026-04-23 15:20 | 41.14687 | 69.36532 | 12743 ft | 241 kts | 218° |
| 2026-04-23 15:20 | 41.13376 | 69.35143 | 13135 ft | 241 kts | 218° |
| 2026-04-23 15:21 | 41.12070 | 69.33759 | 13501 ft | 241 kts | 218° |
| 2026-04-23 15:21 | 41.10738 | 69.32347 | 13868 ft | 242 kts | 217° |
| 2026-04-23 15:21 | 41.09429 | 69.30961 | 14210 ft | 244 kts | 217° |
| 2026-04-23 15:21 | 41.08091 | 69.29546 | 14548 ft | 245 kts | 217° |
| 2026-04-23 15:22 | 41.06746 | 69.28124 | 14880 ft | 247 kts | 217° |
| 2026-04-23 15:22 | 41.05383 | 69.26685 | 15211 ft | 249 kts | 217° |
| 2026-04-23 15:22 | 41.04019 | 69.25244 | 15535 ft | 250 kts | 217° |
| 2026-04-23 15:22 | 41.02649 | 69.23798 | 15856 ft | 252 kts | 216° |
| 2026-04-23 15:23 | 41.01277 | 69.22353 | 16171 ft | 254 kts | 216° |
| 2026-04-23 15:23 | 40.99880 | 69.20879 | 16486 ft | 255 kts | 216° |
| 2026-04-23 15:23 | 40.98481 | 69.19405 | 16794 ft | 257 kts | 216° |
| 2026-04-23 15:23 | 40.97165 | 69.18021 | 17077 ft | 259 kts | 216° |
| 2026-04-23 15:24 | 40.96048 | 69.16844 | 17316 ft | 260 kts | 216° |
| 2026-04-23 15:24 | 40.94389 | 69.15099 | 17677 ft | 262 kts | 216° |
| 2026-04-23 15:24 | 40.92943 | 69.13579 | 18002 ft | 262 kts | 216° |
| 2026-04-23 15:24 | 40.91494 | 69.12058 | 18327 ft | 262 kts | 216° |
| 2026-04-23 15:25 | 40.90070 | 69.10563 | 18648 ft | 262 kts | 216° |
| 2026-04-23 15:25 | 40.88680 | 69.09105 | 18974 ft | 262 kts | 216° |
| 2026-04-23 15:25 | 40.87340 | 69.07700 | 19288 ft | 261 kts | 217° |
| 2026-04-23 15:25 | 40.85897 | 69.06187 | 19619 ft | 260 kts | 217° |
| 2026-04-23 15:26 | 40.84487 | 69.04710 | 19943 ft | 260 kts | 217° |
| 2026-04-23 15:26 | 40.83116 | 69.03275 | 20229 ft | 261 kts | 217° |
| 2026-04-23 15:26 | 40.81678 | 69.01769 | 20301 ft | 269 kts | 218° |
| 2026-04-23 15:26 | 40.80169 | 69.00192 | 20413 ft | 274 kts | 218° |
| 2026-04-23 15:27 | 40.78659 | 68.98614 | 20520 ft | 277 kts | 218° |
| 2026-04-23 15:27 | 40.77145 | 68.97033 | 20596 ft | 281 kts | 219° |
| 2026-04-23 15:27 | 40.75600 | 68.95420 | 20668 ft | 284 kts | 219° |
| 2026-04-23 15:27 | 40.74029 | 68.93780 | 20731 ft | 287 kts | 219° |
| 2026-04-23 15:28 | 40.72445 | 68.92130 | 20786 ft | 289 kts | 219° |
| 2026-04-23 15:28 | 40.70845 | 68.90462 | 20832 ft | 291 kts | 220° |
| 2026-04-23 15:28 | 40.69259 | 68.88810 | 20911 ft | 291 kts | 220° |
| 2026-04-23 15:28 | 40.67648 | 68.87132 | 20992 ft | 292 kts | 220° |
| 2026-04-23 15:29 | 40.66082 | 68.85501 | 21065 ft | 289 kts | 220° |
| 2026-04-23 15:29 | 40.64478 | 68.83832 | 20991 ft | 288 kts | 220° |
| 2026-04-23 15:29 | 40.62897 | 68.82188 | 20830 ft | 290 kts | 220° |
| 2026-04-23 15:29 | 40.61313 | 68.80544 | 20829 ft | 287 kts | 220° |
| 2026-04-23 15:30 | 40.59758 | 68.78930 | 20790 ft | 285 kts | 220° |
| 2026-04-23 15:30 | 40.58200 | 68.77314 | 20749 ft | 284 kts | 220° |
| 2026-04-23 15:30 | 40.56780 | 68.75452 | 20641 ft | 285 kts | 230° |
| 2026-04-23 15:30 | 40.55489 | 68.73507 | 20727 ft | 279 kts | 230° |
| 2026-04-23 15:31 | 40.54220 | 68.71571 | 20677 ft | 277 kts | 231° |
| 2026-04-23 15:31 | 40.52965 | 68.69652 | 20604 ft | 276 kts | 231° |
| 2026-04-23 15:31 | 40.51695 | 68.67710 | 20582 ft | 274 kts | 231° |
| 2026-04-23 15:31 | 40.50454 | 68.65814 | 20547 ft | 273 kts | 231° |
| 2026-04-23 15:32 | 40.49215 | 68.63921 | 20519 ft | 271 kts | 231° |
| 2026-04-23 15:32 | 40.47975 | 68.62028 | 20497 ft | 270 kts | 231° |
| 2026-04-23 15:32 | 40.46743 | 68.60149 | 20476 ft | 269 kts | 231° |
| 2026-04-23 15:32 | 40.45532 | 68.58303 | 20457 ft | 268 kts | 231° |
| 2026-04-23 15:33 | 40.44293 | 68.56415 | 20443 ft | 268 kts | 231° |
| 2026-04-23 15:33 | 40.43144 | 68.54664 | 20430 ft | 267 kts | 231° |
| 2026-04-23 15:33 | 40.41892 | 68.52759 | 20418 ft | 266 kts | 231° |
| 2026-04-23 15:33 | 40.40670 | 68.50900 | 20409 ft | 266 kts | 231° |
| 2026-04-23 15:34 | 40.39450 | 68.49046 | 20400 ft | 266 kts | 231° |
| 2026-04-23 15:34 | 40.38254 | 68.47228 | 20394 ft | 265 kts | 231° |
| 2026-04-23 15:34 | 40.37030 | 68.45370 | 20387 ft | 265 kts | 231° |
| 2026-04-23 15:34 | 40.35833 | 68.43553 | 20382 ft | 265 kts | 231° |
| 2026-04-23 15:35 | 40.34613 | 68.41704 | 20377 ft | 264 kts | 231° |
| 2026-04-23 15:35 | 40.33423 | 68.39900 | 20373 ft | 264 kts | 231° |
| 2026-04-23 15:35 | 40.32217 | 68.38073 | 20369 ft | 264 kts | 231° |
| 2026-04-23 15:35 | 40.31026 | 68.36270 | 20366 ft | 264 kts | 231° |
| 2026-04-23 15:36 | 40.29793 | 68.34405 | 20363 ft | 264 kts | 230° |
| 2026-04-23 15:36 | 40.28588 | 68.32584 | 20365 ft | 264 kts | 230° |
| 2026-04-23 15:36 | 40.27387 | 68.30768 | 20365 ft | 264 kts | 230° |
| 2026-04-23 15:36 | 40.26174 | 68.28937 | 20365 ft | 264 kts | 230° |
| 2026-04-23 15:37 | 40.24979 | 68.27133 | 20365 ft | 264 kts | 230° |
| 2026-04-23 15:37 | 40.23754 | 68.25285 | 20366 ft | 264 kts | 230° |
| 2026-04-23 15:37 | 40.22560 | 68.23485 | 20365 ft | 264 kts | 230° |
| 2026-04-23 15:37 | 40.21316 | 68.21610 | 20365 ft | 264 kts | 230° |
| 2026-04-23 15:38 | 40.20103 | 68.19785 | 20365 ft | 264 kts | 230° |
| 2026-04-23 15:38 | 40.18888 | 68.17955 | 20365 ft | 264 kts | 230° |
| 2026-04-23 15:38 | 40.17687 | 68.16149 | 20365 ft | 264 kts | 230° |
| 2026-04-23 15:38 | 40.16482 | 68.14338 | 20366 ft | 264 kts | 230° |
| 2026-04-23 15:39 | 40.15262 | 68.12505 | 20366 ft | 264 kts | 230° |
| 2026-04-23 15:39 | 40.14050 | 68.10686 | 20365 ft | 264 kts | 230° |
| 2026-04-23 15:39 | 40.12840 | 68.08871 | 20364 ft | 264 kts | 230° |
| 2026-04-23 15:39 | 40.11623 | 68.07045 | 20363 ft | 264 kts | 230° |
| 2026-04-23 15:40 | 40.10418 | 68.05239 | 20361 ft | 264 kts | 230° |
| 2026-04-23 15:40 | 40.09208 | 68.03428 | 20358 ft | 264 kts | 230° |
| 2026-04-23 15:40 | 40.07991 | 68.01607 | 20355 ft | 264 kts | 230° |
| 2026-04-23 15:40 | 40.06785 | 67.99802 | 20353 ft | 264 kts | 230° |
| 2026-04-23 15:41 | 40.05567 | 67.97981 | 20351 ft | 264 kts | 230° |
| 2026-04-23 15:41 | 40.04353 | 67.96167 | 20346 ft | 264 kts | 230° |
| 2026-04-23 15:41 | 40.03144 | 67.94361 | 20341 ft | 264 kts | 230° |
| 2026-04-23 15:41 | 40.01952 | 67.92582 | 20338 ft | 264 kts | 230° |
| 2026-04-23 15:42 | 40.00721 | 67.90746 | 20332 ft | 264 kts | 230° |
| 2026-04-23 15:42 | 39.99512 | 67.88944 | 20330 ft | 264 kts | 230° |
| 2026-04-23 15:42 | 39.98288 | 67.87120 | 20329 ft | 264 kts | 230° |
| 2026-04-23 15:42 | 39.97082 | 67.85326 | 20328 ft | 264 kts | 230° |
| 2026-04-23 15:43 | 39.95861 | 67.83508 | 20327 ft | 264 kts | 230° |
| 2026-04-23 15:43 | 39.94645 | 67.81700 | 20327 ft | 264 kts | 230° |
| 2026-04-23 15:43 | 39.93439 | 67.79906 | 20327 ft | 264 kts | 230° |
| 2026-04-23 15:43 | 39.92223 | 67.78101 | 20327 ft | 264 kts | 230° |
| 2026-04-23 15:44 | 39.91003 | 67.76289 | 20327 ft | 264 kts | 230° |
| 2026-04-23 15:44 | 39.89790 | 67.74490 | 20326 ft | 264 kts | 230° |
| 2026-04-23 15:44 | 39.88572 | 67.72684 | 20328 ft | 264 kts | 230° |
| 2026-04-23 15:44 | 39.87358 | 67.70885 | 20329 ft | 264 kts | 230° |
| 2026-04-23 15:45 | 39.86133 | 67.69070 | 20330 ft | 264 kts | 230° |
| 2026-04-23 15:45 | 39.84922 | 67.67278 | 20330 ft | 264 kts | 230° |
| 2026-04-23 15:45 | 39.83697 | 67.65466 | 20331 ft | 264 kts | 230° |
| 2026-04-23 15:45 | 39.82492 | 67.63684 | 20331 ft | 264 kts | 230° |
| 2026-04-23 15:46 | 39.81181 | 67.62002 | 20265 ft | 268 kts | 219° |
| 2026-04-23 15:46 | 39.79692 | 67.60501 | 20317 ft | 266 kts | 219° |
| 2026-04-23 15:46 | 39.78239 | 67.59057 | 20342 ft | 265 kts | 219° |
| 2026-04-23 15:46 | 39.76761 | 67.57594 | 20319 ft | 266 kts | 219° |
| 2026-04-23 15:47 | 39.75281 | 67.56133 | 20329 ft | 266 kts | 219° |
| 2026-04-23 15:47 | 39.73798 | 67.54670 | 20329 ft | 266 kts | 219° |
| 2026-04-23 15:47 | 39.72315 | 67.53209 | 20327 ft | 266 kts | 219° |
| 2026-04-23 15:47 | 39.70853 | 67.51769 | 20329 ft | 266 kts | 219° |
| 2026-04-23 15:48 | 39.69375 | 67.50314 | 20330 ft | 266 kts | 219° |
| 2026-04-23 15:48 | 39.67902 | 67.48866 | 20330 ft | 266 kts | 219° |
| 2026-04-23 15:48 | 39.66424 | 67.47414 | 20331 ft | 266 kts | 219° |
| 2026-04-23 15:48 | 39.64946 | 67.45961 | 20330 ft | 266 kts | 219° |
| 2026-04-23 15:49 | 39.63470 | 67.44512 | 20330 ft | 266 kts | 219° |
| 2026-04-23 15:49 | 39.61993 | 67.43063 | 20330 ft | 266 kts | 219° |
| 2026-04-23 15:49 | 39.60536 | 67.41634 | 20331 ft | 265 kts | 219° |
| 2026-04-23 15:49 | 39.59078 | 67.40204 | 20308 ft | 263 kts | 219° |
| 2026-04-23 15:50 | 39.57610 | 67.38766 | 20267 ft | 261 kts | 219° |
| 2026-04-23 15:50 | 39.56176 | 67.37362 | 20240 ft | 258 kts | 219° |
| 2026-04-23 15:50 | 39.54718 | 67.35936 | 20174 ft | 254 kts | 219° |
| 2026-04-23 15:50 | 39.53306 | 67.34555 | 20128 ft | 251 kts | 219° |
| 2026-04-23 15:51 | 39.51920 | 67.33200 | 20091 ft | 248 kts | 219° |
| 2026-04-23 15:51 | 39.50546 | 67.31857 | 20083 ft | 245 kts | 219° |
| 2026-04-23 15:51 | 39.49196 | 67.30539 | 20079 ft | 239 kts | 219° |
| 2026-04-23 15:51 | 39.47875 | 67.29250 | 20079 ft | 233 kts | 219° |
| 2026-04-23 15:52 | 39.46590 | 67.27996 | 20079 ft | 229 kts | 219° |
| 2026-04-23 15:52 | 39.45321 | 67.26758 | 20080 ft | 226 kts | 219° |
| 2026-04-23 15:52 | 39.44068 | 67.25536 | 20080 ft | 222 kts | 219° |
| 2026-04-23 15:52 | 39.42711 | 67.24623 | 20046 ft | 227 kts | 190° |
| 2026-04-23 15:53 | 39.41127 | 67.24710 | 20082 ft | 227 kts | 179° |
| 2026-04-23 15:53 | 39.39545 | 67.24907 | 20082 ft | 226 kts | 178° |
| 2026-04-23 15:53 | 39.38008 | 67.25124 | 20082 ft | 225 kts | 178° |
| 2026-04-23 15:53 | 39.36449 | 67.25357 | 20082 ft | 224 kts | 178° |
| 2026-04-23 15:54 | 39.34906 | 67.25594 | 20082 ft | 223 kts | 178° |
| 2026-04-23 15:54 | 39.33364 | 67.25833 | 20083 ft | 222 kts | 178° |
| 2026-04-23 15:54 | 39.31831 | 67.26073 | 20083 ft | 221 kts | 177° |
| 2026-04-23 15:54 | 39.30297 | 67.26314 | 20083 ft | 221 kts | 177° |
| 2026-04-23 15:55 | 39.28783 | 67.26553 | 20083 ft | 220 kts | 178° |
| 2026-04-23 15:55 | 39.27263 | 67.26791 | 20083 ft | 220 kts | 177° |
| 2026-04-23 15:55 | 39.25739 | 67.27031 | 20083 ft | 219 kts | 177° |
| 2026-04-23 15:55 | 39.24227 | 67.27269 | 20083 ft | 219 kts | 178° |
| 2026-04-23 15:56 | 39.22703 | 67.27511 | 20083 ft | 219 kts | 176° |
| 2026-04-23 15:56 | 39.21305 | 67.28365 | 20145 ft | 223 kts | 150° |
| 2026-04-23 15:56 | 39.20003 | 67.29517 | 20095 ft | 226 kts | 149° |
| 2026-04-23 15:56 | 39.18705 | 67.30690 | 20086 ft | 227 kts | 149° |
| 2026-04-23 15:57 | 39.17431 | 67.31852 | 20084 ft | 227 kts | 149° |
| 2026-04-23 15:57 | 39.16124 | 67.33049 | 20084 ft | 227 kts | 149° |
| 2026-04-23 15:57 | 39.14844 | 67.34224 | 20084 ft | 227 kts | 149° |
| 2026-04-23 15:57 | 39.13559 | 67.35390 | 20088 ft | 226 kts | 152° |
| 2026-04-23 15:58 | 39.12249 | 67.36558 | 20084 ft | 226 kts | 150° |
| 2026-04-23 15:58 | 39.10947 | 67.37738 | 20081 ft | 226 kts | 150° |
| 2026-04-23 15:58 | 39.09663 | 67.38925 | 20072 ft | 227 kts | 147° |
| 2026-04-23 15:58 | 39.08414 | 67.40106 | 20082 ft | 227 kts | 148° |
| 2026-04-23 15:59 | 39.07093 | 67.41331 | 20083 ft | 227 kts | 148° |
| 2026-04-23 15:59 | 39.05822 | 67.42503 | 20084 ft | 227 kts | 148° |
| 2026-04-23 15:59 | 39.04523 | 67.43697 | 20084 ft | 227 kts | 149° |
| 2026-04-23 15:59 | 39.03220 | 67.44891 | 20083 ft | 227 kts | 149° |
| 2026-04-23 16:00 | 39.01944 | 67.46059 | 20083 ft | 227 kts | 148° |
| 2026-04-23 16:00 | 39.00641 | 67.47252 | 20083 ft | 227 kts | 148° |
| 2026-04-23 16:00 | 38.99343 | 67.48438 | 20084 ft | 228 kts | 148° |
| 2026-04-23 16:00 | 38.98051 | 67.49619 | 20084 ft | 229 kts | 148° |
| 2026-04-23 16:01 | 38.96761 | 67.50795 | 20084 ft | 229 kts | 149° |
| 2026-04-23 16:01 | 38.95351 | 67.51695 | 20089 ft | 227 kts | 159° |
| 2026-04-23 16:01 | 38.93901 | 67.52536 | 20085 ft | 228 kts | 159° |
| 2026-04-23 16:01 | 38.92491 | 67.53348 | 20085 ft | 228 kts | 159° |
| 2026-04-23 16:02 | 38.91019 | 67.54192 | 20086 ft | 229 kts | 159° |
| 2026-04-23 16:02 | 38.89532 | 67.55044 | 20085 ft | 230 kts | 158° |
| 2026-04-23 16:02 | 38.88056 | 67.55888 | 20084 ft | 231 kts | 158° |
| 2026-04-23 16:02 | 38.86555 | 67.56747 | 20085 ft | 232 kts | 158° |
| 2026-04-23 16:03 | 38.85062 | 67.57602 | 20085 ft | 232 kts | 158° |
| 2026-04-23 16:03 | 38.83583 | 67.58447 | 20085 ft | 233 kts | 158° |
| 2026-04-23 16:03 | 38.82098 | 67.59296 | 20085 ft | 233 kts | 158° |
| 2026-04-23 16:03 | 38.80603 | 67.60148 | 20085 ft | 234 kts | 158° |
| 2026-04-23 16:04 | 38.79101 | 67.61005 | 20048 ft | 236 kts | 158° |
| 2026-04-23 16:04 | 38.77535 | 67.61894 | 19551 ft | 258 kts | 158° |
| 2026-04-23 16:04 | 38.75827 | 67.62867 | 19073 ft | 274 kts | 158° |
| 2026-04-23 16:04 | 38.74043 | 67.63882 | 18597 ft | 286 kts | 157° |
| 2026-04-23 16:05 | 38.72214 | 67.64924 | 18119 ft | 294 kts | 157° |
| 2026-04-23 16:05 | 38.70320 | 67.66002 | 17615 ft | 294 kts | 158° |
| 2026-04-23 16:05 | 38.68460 | 67.67060 | 17113 ft | 292 kts | 157° |
| 2026-04-23 16:05 | 38.66595 | 67.68120 | 16604 ft | 289 kts | 157° |
| 2026-04-23 16:06 | 38.64763 | 67.69160 | 16100 ft | 287 kts | 157° |
| 2026-04-23 16:06 | 38.62928 | 67.70201 | 15594 ft | 286 kts | 157° |
| 2026-04-23 16:06 | 38.61124 | 67.71224 | 15090 ft | 281 kts | 157° |
| 2026-04-23 16:06 | 38.59338 | 67.72236 | 14579 ft | 276 kts | 157° |
| 2026-04-23 16:07 | 38.57580 | 67.73232 | 14068 ft | 272 kts | 157° |
| 2026-04-23 16:07 | 38.55880 | 67.74187 | 13568 ft | 268 kts | 158° |
| 2026-04-23 16:07 | 38.54190 | 67.75064 | 13071 ft | 265 kts | 159° |
| 2026-04-23 16:07 | 38.52470 | 67.75952 | 12561 ft | 262 kts | 158° |
| 2026-04-23 16:08 | 38.50792 | 67.76817 | 12058 ft | 259 kts | 158° |
| 2026-04-23 16:08 | 38.49128 | 67.77675 | 11552 ft | 256 kts | 158° |
| 2026-04-23 16:08 | 38.47484 | 67.78521 | 11048 ft | 254 kts | 158° |
| 2026-04-23 16:08 | 38.45831 | 67.79372 | 10538 ft | 252 kts | 158° |
| 2026-04-23 16:09 | 38.44228 | 67.80196 | 10040 ft | 250 kts | 158° |
| 2026-04-23 16:09 | 38.42614 | 67.81026 | 9536 ft | 249 kts | 158° |
| 2026-04-23 16:09 | 38.41003 | 67.81854 | 9031 ft | 247 kts | 158° |
| 2026-04-23 16:09 | 38.39384 | 67.82684 | 8521 ft | 246 kts | 158° |
| 2026-04-23 16:10 | 38.37817 | 67.83491 | 8024 ft | 245 kts | 158° |
| 2026-04-23 16:10 | 38.36224 | 67.84305 | 7519 ft | 244 kts | 158° |
| 2026-04-23 16:10 | 38.34645 | 67.85117 | 7015 ft | 243 kts | 158° |
| 2026-04-23 16:10 | 38.33079 | 67.85916 | 6515 ft | 242 kts | 157° |
| 2026-04-23 16:11 | 38.31513 | 67.86722 | 6120 ft | 236 kts | 157° |
| 2026-04-23 16:11 | 38.30052 | 67.87466 | 6053 ft | 217 kts | 157° |
| 2026-04-23 16:11 | 38.28705 | 67.88186 | 6040 ft | 198 kts | 155° |
| 2026-04-23 16:11 | 38.27524 | 67.88901 | 6038 ft | 181 kts | 152° |
| 2026-04-23 16:12 | 38.26440 | 67.89606 | 6038 ft | 166 kts | 152° |
| 2026-04-23 16:12 | 38.25455 | 67.90253 | 6034 ft | 152 kts | 151° |
| 2026-04-23 16:12 | 38.24550 | 67.90849 | 6031 ft | 138 kts | 152° |
| 2026-04-23 16:12 | 38.23707 | 67.91406 | 6048 ft | 135 kts | 151° |
| 2026-04-23 16:13 | 38.22871 | 67.91958 | 6057 ft | 137 kts | 152° |
| 2026-04-23 16:13 | 38.21264 | 67.93420 | 5786 ft | 160 kts | 112° |
| 2026-04-23 16:13 | 38.21212 | 67.94856 | 5471 ft | 175 kts | 69° |
| 2026-04-23 16:14 | 38.21846 | 67.96272 | 5144 ft | 190 kts | 58° |
| 2026-04-23 16:14 | 38.22549 | 67.97750 | 4796 ft | 203 kts | 58° |
| 2026-04-23 16:14 | 38.23287 | 67.99326 | 4428 ft | 207 kts | 58° |
| 2026-04-23 16:14 | 38.24016 | 68.00912 | 4057 ft | 208 kts | 59° |
| 2026-04-23 16:15 | 38.24755 | 68.02500 | 3682 ft | 209 kts | 56° |
| 2026-04-23 16:15 | 38.25954 | 68.03451 | 3273 ft | 209 kts | 9° |
| 2026-04-23 16:15 | 38.27311 | 68.03086 | 3105 ft | 195 kts | 338° |
| 2026-04-23 16:15 | 38.28511 | 68.02410 | 3048 ft | 179 kts | 336° |
| 2026-04-23 16:16 | 38.29606 | 68.01749 | 3011 ft | 166 kts | 336° |
| 2026-04-23 16:16 | 38.30631 | 68.01107 | 2880 ft | 162 kts | 335° |
| 2026-04-23 16:16 | 38.31631 | 68.00469 | 2727 ft | 159 kts | 335° |
| 2026-04-23 16:16 | 38.32614 | 67.99837 | 2583 ft | 157 kts | 335° |
| 2026-04-23 16:17 | 38.33569 | 67.99220 | 2551 ft | 147 kts | 334° |
| 2026-04-23 16:17 | 38.34435 | 67.98653 | 2478 ft | 144 kts | 335° |
| 2026-04-23 16:17 | 38.35376 | 67.98041 | 2255 ft | 150 kts | 334° |
| 2026-04-23 16:17 | 38.36250 | 67.97469 | 2300 ft | 137 kts | 335° |
| 2026-04-23 16:18 | 38.37114 | 67.96905 | 2226 ft | 134 kts | 335° |
| 2026-04-23 16:18 | 38.37923 | 67.96377 | 2156 ft | 125 kts | 335° |
| 2026-04-23 16:18 | 38.38676 | 67.95883 | 2080 ft | 117 kts | 335° |
| 2026-04-23 16:18 | 38.39382 | 67.95425 | 2013 ft | 109 kts | 335° |
| 2026-04-23 16:19 | 38.40043 | 67.94997 | 1918 ft | 104 kts | 336° |
| 2026-04-23 16:19 | 38.40590 | 67.94649 | 1924 ft | 57 kts | 329° |
| 2026-04-23 16:19 | 38.40828 | 67.94487 | 1930 ft | 21 kts | 334° |
| 2026-04-23 16:19 | 38.40945 | 67.94409 | 1934 ft | 16 kts | 333° |
| 2026-04-23 16:20 | 38.41018 | 67.94436 | 1935 ft | 9 kts | 47° |
| 2026-04-23 16:20 | 38.41067 | 67.94504 | 1933 ft | 10 kts | 48° |
| 2026-04-23 16:20 | 38.41113 | 67.94579 | 1933 ft | 10 kts | 56° |
| 2026-04-23 16:20 | 38.41153 | 67.94591 | 1933 ft | 3 kts | 317° |
| 2026-04-23 16:21 | 38.41161 | 67.94582 | 1934 ft | 1 kts | 316° |